Terminal Aerodrome Forecast
Issued by NWS Brownsville, TX

Home | Current Version | Previous Version | Text Only | Print | Product List | Glossary On
Versions: 1 2 3 4 5 6 7 8 9 10 11 12 13 14 15 16 17 18 19 20
606
FTUS44 KBRO 261932 AAA
TAFHRL
TAF AMD
KHRL 261932Z 2620/2718 34020G30KT P6SM SKC
     FM270000 05010KT P6SM SKC
     FM271500 11012KT P6SM SCT250=

USA.gov is the U.S. government's official web portal to all federal, state and local government web resources and services.